sensor_id;sensor_type;location;lat;lon;timestamp;temperature;humidity
19972;DHT22;10147;16.402;102.848;2023-06-22T00:00:46;28.30;99.90
19972;DHT22;10147;16.402;102.848;2023-06-22T00:03:22;28.20;99.90
19972;DHT22;10147;16.402;102.848;2023-06-22T00:05:54;28.30;99.90
19972;DHT22;10147;16.402;102.848;2023-06-22T00:08:25;28.30;99.90
19972;DHT22;10147;16.402;102.848;2023-06-22T00:10:55;28.40;99.90
19972;DHT22;10147;16.402;102.848;2023-06-22T00:13:25;28.50;99.90
19972;DHT22;10147;16.402;102.848;2023-06-22T00:15:55;28.60;99.90
19972;DHT22;10147;16.402;102.848;2023-06-22T00:18:26;28.60;99.90
19972;DHT22;10147;16.402;102.848;2023-06-22T00:20:57;28.70;99.90
19972;DHT22;10147;16.402;102.848;2023-06-22T00:23:27;28.70;99.90
19972;DHT22;10147;16.402;102.848;2023-06-22T00:25:58;28.80;99.90
19972;DHT22;10147;16.402;102.848;2023-06-22T00:28:28;28.90;99.90
19972;DHT22;10147;16.402;102.848;2023-06-22T00:31:00;29.00;99.90
19972;DHT22;10147;16.402;102.848;2023-06-22T00:33:31;29.00;99.90
19972;DHT22;10147;16.402;102.848;2023-06-22T00:36:00;29.10;99.90
19972;DHT22;10147;16.402;102.848;2023-06-22T00:38:32;29.10;99.90
19972;DHT22;10147;16.402;102.848;2023-06-22T00:41:02;29.20;99.90
19972;DHT22;10147;16.402;102.848;2023-06-22T00:43:33;29.30;99.90
19972;DHT22;10147;16.402;102.848;2023-06-22T00:46:03;29.30;99.90
19972;DHT22;10147;16.402;102.848;2023-06-22T00:48:33;29.40;99.90
19972;DHT22;10147;16.402;102.848;2023-06-22T00:51:06;29.40;99.90
19972;DHT22;10147;16.402;102.848;2023-06-22T00:53:36;29.50;99.90
19972;DHT22;10147;16.402;102.848;2023-06-22T00:56:07;29.60;99.90
19972;DHT22;10147;16.402;102.848;2023-06-22T00:58:38;29.60;99.90
19972;DHT22;10147;16.402;102.848;2023-06-22T01:01:11;29.60;99.90
19972;DHT22;10147;16.402;102.848;2023-06-22T01:03:41;29.70;99.90
19972;DHT22;10147;16.402;102.848;2023-06-22T01:06:18;29.70;99.90
19972;DHT22;10147;16.402;102.848;2023-06-22T01:09:00;29.70;99.90
19972;DHT22;10147;16.402;102.848;2023-06-22T01:11:43;29.70;99.90
19972;DHT22;10147;16.402;102.848;2023-06-22T01:14:40;29.60;99.90
19972;DHT22;10147;16.402;102.848;2023-06-22T01:17:12;29.70;99.90
19972;DHT22;10147;16.402;102.848;2023-06-22T01:19:50;29.80;99.90
19972;DHT22;10147;16.402;102.848;2023-06-22T01:22:30;29.80;99.90
19972;DHT22;10147;16.402;102.848;2023-06-22T01:25:17;29.90;99.90
19972;DHT22;10147;16.402;102.848;2023-06-22T01:30:52;30.00;99.90
19972;DHT22;10147;16.402;102.848;2023-06-22T01:33:38;30.20;99.90
19972;DHT22;10147;16.402;102.848;2023-06-22T01:36:10;30.30;99.90
19972;DHT22;10147;16.402;102.848;2023-06-22T01:38:41;30.40;99.90
19972;DHT22;10147;16.402;102.848;2023-06-22T01:41:12;30.50;99.90
19972;DHT22;10147;16.402;102.848;2023-06-22T01:43:43;30.70;99.90
19972;DHT22;10147;16.402;102.848;2023-06-22T01:46:14;30.80;99.90
19972;DHT22;10147;16.402;102.848;2023-06-22T01:48:46;30.80;99.90
19972;DHT22;10147;16.402;102.848;2023-06-22T01:51:17;31.00;99.90
19972;DHT22;10147;16.402;102.848;2023-06-22T01:53:47;31.10;99.90
19972;DHT22;10147;16.402;102.848;2023-06-22T01:56:19;31.20;99.90
19972;DHT22;10147;16.402;102.848;2023-06-22T01:59:13;31.20;99.90
19972;DHT22;10147;16.402;102.848;2023-06-22T02:01:54;31.20;99.90
19972;DHT22;10147;16.402;102.848;2023-06-22T02:04:32;31.40;99.90
19972;DHT22;10147;16.402;102.848;2023-06-22T02:07:07;31.50;99.90
19972;DHT22;10147;16.402;102.848;2023-06-22T02:09:41;31.40;99.90
19972;DHT22;10147;16.402;102.848;2023-06-22T02:12:16;31.60;99.90
19972;DHT22;10147;16.402;102.848;2023-06-22T02:14:47;31.70;99.90
19972;DHT22;10147;16.402;102.848;2023-06-22T02:17:18;31.80;99.90
19972;DHT22;10147;16.402;102.848;2023-06-22T02:19:48;31.90;99.90
19972;DHT22;10147;16.402;102.848;2023-06-22T02:22:18;31.80;99.90
19972;DHT22;10147;16.402;102.848;2023-06-22T02:24:48;31.90;99.90
19972;DHT22;10147;16.402;102.848;2023-06-22T02:27:19;31.80;99.90
19972;DHT22;10147;16.402;102.848;2023-06-22T02:29:50;32.00;99.90
19972;DHT22;10147;16.402;102.848;2023-06-22T02:32:19;32.00;99.90
19972;DHT22;10147;16.402;102.848;2023-06-22T02:34:50;32.00;99.90
19972;DHT22;10147;16.402;102.848;2023-06-22T02:37:20;32.20;99.90
19972;DHT22;10147;16.402;102.848;2023-06-22T02:39:50;32.30;99.90
19972;DHT22;10147;16.402;102.848;2023-06-22T02:42:20;32.40;99.90
19972;DHT22;10147;16.402;102.848;2023-06-22T02:44:50;32.40;99.90
19972;DHT22;10147;16.402;102.848;2023-06-22T02:47:20;32.50;99.90
19972;DHT22;10147;16.402;102.848;2023-06-22T02:49:51;32.60;99.90
19972;DHT22;10147;16.402;102.848;2023-06-22T02:52:22;32.70;99.90
19972;DHT22;10147;16.402;102.848;2023-06-22T02:54:52;32.80;99.90
19972;DHT22;10147;16.402;102.848;2023-06-22T02:57:22;32.90;99.90
19972;DHT22;10147;16.402;102.848;2023-06-22T02:59:52;33.00;99.90
19972;DHT22;10147;16.402;102.848;2023-06-22T03:02:22;33.10;99.90
19972;DHT22;10147;16.402;102.848;2023-06-22T03:04:52;32.90;99.90
19972;DHT22;10147;16.402;102.848;2023-06-22T03:07:23;32.80;99.90
19972;DHT22;10147;16.402;102.848;2023-06-22T03:09:55;32.90;99.90
19972;DHT22;10147;16.402;102.848;2023-06-22T03:12:25;32.90;99.90
19972;DHT22;10147;16.402;102.848;2023-06-22T03:14:56;33.10;99.90
19972;DHT22;10147;16.402;102.848;2023-06-22T03:17:27;33.10;99.90
19972;DHT22;10147;16.402;102.848;2023-06-22T03:19:57;33.30;99.90
19972;DHT22;10147;16.402;102.848;2023-06-22T03:22:27;33.60;99.90
19972;DHT22;10147;16.402;102.848;2023-06-22T03:24:57;33.70;99.90
19972;DHT22;10147;16.402;102.848;2023-06-22T03:27:27;33.70;99.90
19972;DHT22;10147;16.402;102.848;2023-06-22T03:29:58;33.80;99.90
19972;DHT22;10147;16.402;102.848;2023-06-22T03:32:28;34.00;99.90
19972;DHT22;10147;16.402;102.848;2023-06-22T03:34:58;34.20;99.90
19972;DHT22;10147;16.402;102.848;2023-06-22T03:37:29;34.00;99.90
19972;DHT22;10147;16.402;102.848;2023-06-22T03:40:00;34.00;99.90
19972;DHT22;10147;16.402;102.848;2023-06-22T03:42:30;33.80;99.90
19972;DHT22;10147;16.402;102.848;2023-06-22T03:45:02;33.90;99.90
19972;DHT22;10147;16.402;102.848;2023-06-22T03:47:33;34.10;99.90
19972;DHT22;10147;16.402;102.848;2023-06-22T03:50:04;34.30;99.90
19972;DHT22;10147;16.402;102.848;2023-06-22T03:52:35;34.40;99.90
19972;DHT22;10147;16.402;102.848;2023-06-22T03:55:05;34.20;99.90
19972;DHT22;10147;16.402;102.848;2023-06-22T03:57:36;34.40;99.90
19972;DHT22;10147;16.402;102.848;2023-06-22T04:00:06;34.40;99.90
19972;DHT22;10147;16.402;102.848;2023-06-22T04:02:42;34.60;99.90
19972;DHT22;10147;16.402;102.848;2023-06-22T04:05:12;34.60;99.90
19972;DHT22;10147;16.402;102.848;2023-06-22T04:07:42;34.50;99.90
19972;DHT22;10147;16.402;102.848;2023-06-22T04:10:12;34.60;99.90
19972;DHT22;10147;16.402;102.848;2023-06-22T04:12:45;34.60;99.90
19972;DHT22;10147;16.402;102.848;2023-06-22T04:15:15;34.50;99.90
19972;DHT22;10147;16.402;102.848;2023-06-22T04:17:45;34.80;99.90
19972;DHT22;10147;16.402;102.848;2023-06-22T04:20:15;34.80;99.90
19972;DHT22;10147;16.402;102.848;2023-06-22T04:22:45;34.90;99.90
19972;DHT22;10147;16.402;102.848;2023-06-22T04:25:15;35.00;99.90
19972;DHT22;10147;16.402;102.848;2023-06-22T04:27:45;34.60;99.90
19972;DHT22;10147;16.402;102.848;2023-06-22T04:30:15;34.80;99.90
19972;DHT22;10147;16.402;102.848;2023-06-22T04:32:46;35.20;99.90
19972;DHT22;10147;16.402;102.848;2023-06-22T04:35:25;35.00;99.90
19972;DHT22;10147;16.402;102.848;2023-06-22T04:37:58;35.20;99.90
19972;DHT22;10147;16.402;102.848;2023-06-22T04:40:28;35.30;99.90
19972;DHT22;10147;16.402;102.848;2023-06-22T04:42:58;35.20;99.90
19972;DHT22;10147;16.402;102.848;2023-06-22T04:45:33;35.50;99.90
19972;DHT22;10147;16.402;102.848;2023-06-22T04:48:05;35.70;99.90
19972;DHT22;10147;16.402;102.848;2023-06-22T04:50:37;35.50;99.90
19972;DHT22;10147;16.402;102.848;2023-06-22T04:53:08;35.60;99.90
19972;DHT22;10147;16.402;102.848;2023-06-22T04:55:39;35.80;99.90
19972;DHT22;10147;16.402;102.848;2023-06-22T04:58:11;35.70;99.90
19972;DHT22;10147;16.402;102.848;2023-06-22T05:00:42;35.70;99.90
19972;DHT22;10147;16.402;102.848;2023-06-22T05:03:16;35.80;99.90
19972;DHT22;10147;16.402;102.848;2023-06-22T05:05:48;35.70;99.90
19972;DHT22;10147;16.402;102.848;2023-06-22T05:08:18;35.90;99.90
19972;DHT22;10147;16.402;102.848;2023-06-22T05:10:48;36.10;99.90
19972;DHT22;10147;16.402;102.848;2023-06-22T05:13:32;36.10;99.90
19972;DHT22;10147;16.402;102.848;2023-06-22T05:16:02;36.10;99.90
19972;DHT22;10147;16.402;102.848;2023-06-22T05:18:33;36.20;99.90
19972;DHT22;10147;16.402;102.848;2023-06-22T05:21:04;36.20;99.90
19972;DHT22;10147;16.402;102.848;2023-06-22T05:23:34;36.10;99.90
19972;DHT22;10147;16.402;102.848;2023-06-22T05:26:04;35.70;99.90
19972;DHT22;10147;16.402;102.848;2023-06-22T05:28:34;35.80;99.90
19972;DHT22;10147;16.402;102.848;2023-06-22T05:31:04;36.20;99.90
19972;DHT22;10147;16.402;102.848;2023-06-22T05:33:34;36.40;99.90
19972;DHT22;10147;16.402;102.848;2023-06-22T05:36:05;36.20;99.90
19972;DHT22;10147;16.402;102.848;2023-06-22T05:38:35;35.80;99.90
19972;DHT22;10147;16.402;102.848;2023-06-22T05:41:06;35.60;99.90
19972;DHT22;10147;16.402;102.848;2023-06-22T05:43:36;35.90;99.90
19972;DHT22;10147;16.402;102.848;2023-06-22T05:46:07;36.30;99.90
19972;DHT22;10147;16.402;102.848;2023-06-22T05:48:37;36.50;99.90
19972;DHT22;10147;16.402;102.848;2023-06-22T05:51:07;36.10;99.90
19972;DHT22;10147;16.402;102.848;2023-06-22T05:53:37;35.80;99.90
19972;DHT22;10147;16.402;102.848;2023-06-22T05:56:07;36.10;99.90
19972;DHT22;10147;16.402;102.848;2023-06-22T05:58:37;36.20;99.90
19972;DHT22;10147;16.402;102.848;2023-06-22T06:01:07;36.10;99.90
19972;DHT22;10147;16.402;102.848;2023-06-22T06:03:37;36.00;99.90
19972;DHT22;10147;16.402;102.848;2023-06-22T06:06:10;35.80;99.90
19972;DHT22;10147;16.402;102.848;2023-06-22T06:08:40;36.00;99.90
19972;DHT22;10147;16.402;102.848;2023-06-22T06:11:10;36.40;99.90
19972;DHT22;10147;16.402;102.848;2023-06-22T06:13:40;36.60;99.90
19972;DHT22;10147;16.402;102.848;2023-06-22T06:16:10;36.50;99.90
19972;DHT22;10147;16.402;102.848;2023-06-22T06:18:40;36.60;99.90
19972;DHT22;10147;16.402;102.848;2023-06-22T06:21:11;36.70;99.90
19972;DHT22;10147;16.402;102.848;2023-06-22T06:23:40;36.90;99.90
19972;DHT22;10147;16.402;102.848;2023-06-22T06:26:11;36.80;99.90
19972;DHT22;10147;16.402;102.848;2023-06-22T06:28:42;36.80;99.90
19972;DHT22;10147;16.402;102.848;2023-06-22T06:31:12;36.80;99.90
19972;DHT22;10147;16.402;102.848;2023-06-22T06:33:47;36.90;99.90
19972;DHT22;10147;16.402;102.848;2023-06-22T06:36:17;36.60;99.90
19972;DHT22;10147;16.402;102.848;2023-06-22T06:38:48;36.10;99.90
19972;DHT22;10147;16.402;102.848;2023-06-22T06:41:18;36.10;99.90
19972;DHT22;10147;16.402;102.848;2023-06-22T06:43:49;36.50;99.90
19972;DHT22;10147;16.402;102.848;2023-06-22T06:46:19;36.50;99.90
19972;DHT22;10147;16.402;102.848;2023-06-22T06:48:50;36.60;99.90
19972;DHT22;10147;16.402;102.848;2023-06-22T06:51:22;36.80;99.90
19972;DHT22;10147;16.402;102.848;2023-06-22T06:53:52;36.90;99.90
19972;DHT22;10147;16.402;102.848;2023-06-22T06:56:23;37.10;99.90
19972;DHT22;10147;16.402;102.848;2023-06-22T06:58:53;37.10;99.90
19972;DHT22;10147;16.402;102.848;2023-06-22T07:01:23;37.20;99.90
19972;DHT22;10147;16.402;102.848;2023-06-22T07:03:53;37.20;99.90
19972;DHT22;10147;16.402;102.848;2023-06-22T07:06:23;37.30;99.90
19972;DHT22;10147;16.402;102.848;2023-06-22T07:08:58;37.40;99.90
19972;DHT22;10147;16.402;102.848;2023-06-22T07:11:28;37.30;99.90
19972;DHT22;10147;16.402;102.848;2023-06-22T07:13:58;36.90;99.90
19972;DHT22;10147;16.402;102.848;2023-06-22T07:16:30;37.10;99.90
19972;DHT22;10147;16.402;102.848;2023-06-22T07:19:01;36.80;99.90
19972;DHT22;10147;16.402;102.848;2023-06-22T07:21:31;36.70;99.90
19972;DHT22;10147;16.402;102.848;2023-06-22T07:24:01;37.30;99.90
19972;DHT22;10147;16.402;102.848;2023-06-22T07:26:30;37.00;99.90
19972;DHT22;10147;16.402;102.848;2023-06-22T07:29:01;37.20;99.90
19972;DHT22;10147;16.402;102.848;2023-06-22T07:31:31;36.90;99.90
19972;DHT22;10147;16.402;102.848;2023-06-22T07:34:01;37.10;99.90
19972;DHT22;10147;16.402;102.848;2023-06-22T07:36:32;37.10;99.90
19972;DHT22;10147;16.402;102.848;2023-06-22T07:39:02;37.10;99.90
19972;DHT22;10147;16.402;102.848;2023-06-22T07:41:33;37.30;99.90
19972;DHT22;10147;16.402;102.848;2023-06-22T07:44:03;37.30;99.90
19972;DHT22;10147;16.402;102.848;2023-06-22T07:46:33;37.40;99.90
19972;DHT22;10147;16.402;102.848;2023-06-22T07:49:03;36.80;99.90
19972;DHT22;10147;16.402;102.848;2023-06-22T07:51:34;37.00;99.90
19972;DHT22;10147;16.402;102.848;2023-06-22T07:54:04;37.40;99.90
19972;DHT22;10147;16.402;102.848;2023-06-22T07:56:34;36.90;99.90
19972;DHT22;10147;16.402;102.848;2023-06-22T07:59:04;36.50;99.90
19972;DHT22;10147;16.402;102.848;2023-06-22T08:01:34;36.50;99.90
19972;DHT22;10147;16.402;102.848;2023-06-22T08:04:04;36.60;99.90
19972;DHT22;10147;16.402;102.848;2023-06-22T08:06:35;37.20;99.90
19972;DHT22;10147;16.402;102.848;2023-06-22T08:09:06;36.90;99.90
19972;DHT22;10147;16.402;102.848;2023-06-22T08:11:37;36.80;99.90
19972;DHT22;10147;16.402;102.848;2023-06-22T08:14:07;36.60;99.90
19972;DHT22;10147;16.402;102.848;2023-06-22T08:16:37;36.90;99.90
19972;DHT22;10147;16.402;102.848;2023-06-22T08:19:06;37.20;99.90
19972;DHT22;10147;16.402;102.848;2023-06-22T08:21:37;37.40;99.90
19972;DHT22;10147;16.402;102.848;2023-06-22T08:24:07;37.40;99.90
19972;DHT22;10147;16.402;102.848;2023-06-22T08:26:37;37.50;99.90
19972;DHT22;10147;16.402;102.848;2023-06-22T08:29:07;37.70;99.90
19972;DHT22;10147;16.402;102.848;2023-06-22T08:31:37;37.70;99.90
19972;DHT22;10147;16.402;102.848;2023-06-22T08:34:07;37.40;99.90
19972;DHT22;10147;16.402;102.848;2023-06-22T08:36:38;37.50;99.90
19972;DHT22;10147;16.402;102.848;2023-06-22T08:39:11;37.60;99.90
19972;DHT22;10147;16.402;102.848;2023-06-22T08:41:40;37.60;99.90
19972;DHT22;10147;16.402;102.848;2023-06-22T08:44:10;37.50;99.90
19972;DHT22;10147;16.402;102.848;2023-06-22T08:46:41;37.70;99.90
19972;DHT22;10147;16.402;102.848;2023-06-22T08:49:11;37.50;99.90
19972;DHT22;10147;16.402;102.848;2023-06-22T08:51:41;37.30;99.90
19972;DHT22;10147;16.402;102.848;2023-06-22T08:54:11;37.50;99.90
19972;DHT22;10147;16.402;102.848;2023-06-22T08:56:41;37.50;99.90
19972;DHT22;10147;16.402;102.848;2023-06-22T08:59:13;37.20;99.90
19972;DHT22;10147;16.402;102.848;2023-06-22T09:01:43;37.50;99.90
19972;DHT22;10147;16.402;102.848;2023-06-22T09:04:15;37.80;99.90
19972;DHT22;10147;16.402;102.848;2023-06-22T09:06:45;37.60;99.90
19972;DHT22;10147;16.402;102.848;2023-06-22T09:09:16;37.30;99.90
19972;DHT22;10147;16.402;102.848;2023-06-22T09:11:47;37.50;99.90
19972;DHT22;10147;16.402;102.848;2023-06-22T09:14:16;37.50;99.90
19972;DHT22;10147;16.402;102.848;2023-06-22T09:16:47;37.50;99.90
19972;DHT22;10147;16.402;102.848;2023-06-22T09:19:16;37.40;99.90
19972;DHT22;10147;16.402;102.848;2023-06-22T09:21:47;37.50;99.90
19972;DHT22;10147;16.402;102.848;2023-06-22T09:24:16;37.20;99.90
19972;DHT22;10147;16.402;102.848;2023-06-22T09:26:46;37.10;99.90
19972;DHT22;10147;16.402;102.848;2023-06-22T09:29:17;37.00;99.90
19972;DHT22;10147;16.402;102.848;2023-06-22T09:31:47;37.10;99.90
19972;DHT22;10147;16.402;102.848;2023-06-22T09:34:17;37.20;99.90
19972;DHT22;10147;16.402;102.848;2023-06-22T09:36:49;37.30;99.90
19972;DHT22;10147;16.402;102.848;2023-06-22T09:39:19;37.40;99.90
19972;DHT22;10147;16.402;102.848;2023-06-22T09:41:49;37.50;99.90
19972;DHT22;10147;16.402;102.848;2023-06-22T09:44:19;37.30;99.90
19972;DHT22;10147;16.402;102.848;2023-06-22T09:46:49;37.20;99.90
19972;DHT22;10147;16.402;102.848;2023-06-22T09:49:19;37.30;99.90
19972;DHT22;10147;16.402;102.848;2023-06-22T09:52:10;37.10;99.90
19972;DHT22;10147;16.402;102.848;2023-06-22T09:54:40;36.90;99.90
19972;DHT22;10147;16.402;102.848;2023-06-22T09:57:10;37.30;99.90
19972;DHT22;10147;16.402;102.848;2023-06-22T09:59:41;36.90;99.90
19972;DHT22;10147;16.402;102.848;2023-06-22T10:02:11;36.60;99.90
19972;DHT22;10147;16.402;102.848;2023-06-22T10:04:41;36.30;99.90
19972;DHT22;10147;16.402;102.848;2023-06-22T10:07:12;36.20;99.90
19972;DHT22;10147;16.402;102.848;2023-06-22T10:09:41;36.10;99.90
19972;DHT22;10147;16.402;102.848;2023-06-22T10:12:11;36.20;99.90
19972;DHT22;10147;16.402;102.848;2023-06-22T10:14:41;36.20;99.90
19972;DHT22;10147;16.402;102.848;2023-06-22T10:17:12;36.50;99.90
19972;DHT22;10147;16.402;102.848;2023-06-22T10:19:42;36.30;99.90
19972;DHT22;10147;16.402;102.848;2023-06-22T10:22:12;36.40;99.90
19972;DHT22;10147;16.402;102.848;2023-06-22T10:24:42;36.30;99.90
19972;DHT22;10147;16.402;102.848;2023-06-22T10:27:14;36.20;99.90
19972;DHT22;10147;16.402;102.848;2023-06-22T10:29:44;36.10;99.90
19972;DHT22;10147;16.402;102.848;2023-06-22T10:32:14;35.90;99.90
19972;DHT22;10147;16.402;102.848;2023-06-22T10:34:44;35.90;99.90
19972;DHT22;10147;16.402;102.848;2023-06-22T10:37:14;35.80;99.90
19972;DHT22;10147;16.402;102.848;2023-06-22T10:39:44;35.70;99.90
19972;DHT22;10147;16.402;102.848;2023-06-22T10:42:15;35.90;99.90
19972;DHT22;10147;16.402;102.848;2023-06-22T10:44:45;35.90;99.90
19972;DHT22;10147;16.402;102.848;2023-06-22T10:47:15;36.00;99.90
19972;DHT22;10147;16.402;102.848;2023-06-22T10:49:45;35.90;99.90
19972;DHT22;10147;16.402;102.848;2023-06-22T10:52:17;35.70;99.90
19972;DHT22;10147;16.402;102.848;2023-06-22T10:54:47;34.80;99.90
19972;DHT22;10147;16.402;102.848;2023-06-22T10:57:17;34.60;99.90
19972;DHT22;10147;16.402;102.848;2023-06-22T10:59:47;34.40;99.90
19972;DHT22;10147;16.402;102.848;2023-06-22T11:02:17;34.60;99.90
19972;DHT22;10147;16.402;102.848;2023-06-22T11:04:47;34.80;99.90
19972;DHT22;10147;16.402;102.848;2023-06-22T11:07:17;34.70;99.90
19972;DHT22;10147;16.402;102.848;2023-06-22T11:09:47;34.70;99.90
19972;DHT22;10147;16.402;102.848;2023-06-22T11:12:17;34.80;99.90
19972;DHT22;10147;16.402;102.848;2023-06-22T11:14:47;34.80;99.90
19972;DHT22;10147;16.402;102.848;2023-06-22T11:17:19;34.80;99.90
19972;DHT22;10147;16.402;102.848;2023-06-22T11:19:49;34.70;99.90
19972;DHT22;10147;16.402;102.848;2023-06-22T11:22:19;34.70;99.90
19972;DHT22;10147;16.402;102.848;2023-06-22T11:24:52;34.50;99.90
19972;DHT22;10147;16.402;102.848;2023-06-22T11:27:22;34.40;99.90
19972;DHT22;10147;16.402;102.848;2023-06-22T11:29:52;34.30;99.90
19972;DHT22;10147;16.402;102.848;2023-06-22T11:32:23;34.20;99.90
19972;DHT22;10147;16.402;102.848;2023-06-22T11:34:53;34.10;99.90
19972;DHT22;10147;16.402;102.848;2023-06-22T11:37:23;34.10;99.90
19972;DHT22;10147;16.402;102.848;2023-06-22T11:39:53;34.20;99.90
19972;DHT22;10147;16.402;102.848;2023-06-22T11:42:33;34.20;99.90
19972;DHT22;10147;16.402;102.848;2023-06-22T11:45:05;34.00;99.90
19972;DHT22;10147;16.402;102.848;2023-06-22T11:47:37;34.10;99.90
19972;DHT22;10147;16.402;102.848;2023-06-22T11:50:09;34.00;99.90
19972;DHT22;10147;16.402;102.848;2023-06-22T11:52:39;33.90;99.90
19972;DHT22;10147;16.402;102.848;2023-06-22T11:55:09;33.90;99.90
19972;DHT22;10147;16.402;102.848;2023-06-22T11:57:56;33.80;99.90
19972;DHT22;10147;16.402;102.848;2023-06-22T12:00:32;33.80;99.90
19972;DHT22;10147;16.402;102.848;2023-06-22T12:03:17;33.80;99.90
19972;DHT22;10147;16.402;102.848;2023-06-22T12:05:49;33.80;99.90
19972;DHT22;10147;16.402;102.848;2023-06-22T12:08:19;33.80;99.90
19972;DHT22;10147;16.402;102.848;2023-06-22T12:10:50;33.70;99.90
19972;DHT22;10147;16.402;102.848;2023-06-22T12:13:20;33.40;99.90
19972;DHT22;10147;16.402;102.848;2023-06-22T12:15:49;33.40;99.90
19972;DHT22;10147;16.402;102.848;2023-06-22T12:18:21;33.40;99.90
19972;DHT22;10147;16.402;102.848;2023-06-22T12:20:51;33.50;99.90
19972;DHT22;10147;16.402;102.848;2023-06-22T12:23:21;33.30;99.90
19972;DHT22;10147;16.402;102.848;2023-06-22T12:25:51;33.10;99.90
19972;DHT22;10147;16.402;102.848;2023-06-22T12:28:21;33.20;99.90
19972;DHT22;10147;16.402;102.848;2023-06-22T12:30:52;33.20;99.90
19972;DHT22;10147;16.402;102.848;2023-06-22T12:33:22;33.10;99.90
19972;DHT22;10147;16.402;102.848;2023-06-22T12:35:52;33.20;99.90
19972;DHT22;10147;16.402;102.848;2023-06-22T12:38:22;33.20;99.90
19972;DHT22;10147;16.402;102.848;2023-06-22T12:40:55;33.30;99.90
19972;DHT22;10147;16.402;102.848;2023-06-22T12:43:25;33.20;99.90
19972;DHT22;10147;16.402;102.848;2023-06-22T12:45:55;33.20;99.90
19972;DHT22;10147;16.402;102.848;2023-06-22T12:48:27;33.20;99.90
19972;DHT22;10147;16.402;102.848;2023-06-22T12:50:57;33.20;99.90
19972;DHT22;10147;16.402;102.848;2023-06-22T12:53:27;33.20;99.90
19972;DHT22;10147;16.402;102.848;2023-06-22T12:55:57;33.20;99.90
19972;DHT22;10147;16.402;102.848;2023-06-22T12:58:27;33.10;99.90
19972;DHT22;10147;16.402;102.848;2023-06-22T13:00:57;33.10;99.90
19972;DHT22;10147;16.402;102.848;2023-06-22T13:03:28;32.90;99.90
19972;DHT22;10147;16.402;102.848;2023-06-22T13:05:58;32.90;99.90
19972;DHT22;10147;16.402;102.848;2023-06-22T13:08:29;32.80;99.90
19972;DHT22;10147;16.402;102.848;2023-06-22T13:11:19;32.80;99.90
19972;DHT22;10147;16.402;102.848;2023-06-22T13:13:50;33.00;99.90
19972;DHT22;10147;16.402;102.848;2023-06-22T13:16:20;33.00;99.90
19972;DHT22;10147;16.402;102.848;2023-06-22T13:18:50;32.80;99.90
19972;DHT22;10147;16.402;102.848;2023-06-22T13:21:20;32.90;99.90
19972;DHT22;10147;16.402;102.848;2023-06-22T13:23:50;32.90;99.90
19972;DHT22;10147;16.402;102.848;2023-06-22T13:26:21;32.80;99.90
19972;DHT22;10147;16.402;102.848;2023-06-22T13:28:52;32.70;99.90
19972;DHT22;10147;16.402;102.848;2023-06-22T13:31:22;32.80;99.90
19972;DHT22;10147;16.402;102.848;2023-06-22T13:33:52;32.80;99.90
19972;DHT22;10147;16.402;102.848;2023-06-22T13:36:22;32.70;99.90
19972;DHT22;10147;16.402;102.848;2023-06-22T13:38:53;32.50;99.90
19972;DHT22;10147;16.402;102.848;2023-06-22T13:41:23;32.30;99.90
19972;DHT22;10147;16.402;102.848;2023-06-22T13:43:53;32.30;99.90
19972;DHT22;10147;16.402;102.848;2023-06-22T13:46:22;32.10;99.90
19972;DHT22;10147;16.402;102.848;2023-06-22T13:48:53;31.80;99.90
19972;DHT22;10147;16.402;102.848;2023-06-22T13:51:24;31.60;99.90
19972;DHT22;10147;16.402;102.848;2023-06-22T13:53:54;31.60;99.90
19972;DHT22;10147;16.402;102.848;2023-06-22T13:56:25;31.50;99.90
19972;DHT22;10147;16.402;102.848;2023-06-22T13:58:56;31.40;99.90
19972;DHT22;10147;16.402;102.848;2023-06-22T14:01:26;31.60;99.90
19972;DHT22;10147;16.402;102.848;2023-06-22T14:03:57;31.60;99.90
19972;DHT22;10147;16.402;102.848;2023-06-22T14:06:27;31.50;99.90
19972;DHT22;10147;16.402;102.848;2023-06-22T14:08:58;31.20;99.90
19972;DHT22;10147;16.402;102.848;2023-06-22T14:11:28;31.50;99.90
19972;DHT22;10147;16.402;102.848;2023-06-22T14:13:59;31.40;99.90
19972;DHT22;10147;16.402;102.848;2023-06-22T14:16:29;31.30;99.90
19972;DHT22;10147;16.402;102.848;2023-06-22T14:18:59;31.20;99.90
19972;DHT22;10147;16.402;102.848;2023-06-22T14:21:31;31.00;99.90
19972;DHT22;10147;16.402;102.848;2023-06-22T14:24:01;31.20;99.90
19972;DHT22;10147;16.402;102.848;2023-06-22T14:26:31;31.50;99.90
19972;DHT22;10147;16.402;102.848;2023-06-22T14:29:01;31.50;99.90
19972;DHT22;10147;16.402;102.848;2023-06-22T14:31:31;31.50;99.90
19972;DHT22;10147;16.402;102.848;2023-06-22T14:34:02;31.60;99.90
19972;DHT22;10147;16.402;102.848;2023-06-22T14:36:33;31.70;99.90
19972;DHT22;10147;16.402;102.848;2023-06-22T14:39:04;31.60;99.90
19972;DHT22;10147;16.402;102.848;2023-06-22T14:41:34;31.30;99.90
19972;DHT22;10147;16.402;102.848;2023-06-22T14:44:06;31.10;99.90
19972;DHT22;10147;16.402;102.848;2023-06-22T14:46:36;30.80;99.90
19972;DHT22;10147;16.402;102.848;2023-06-22T14:49:06;30.60;99.90
19972;DHT22;10147;16.402;102.848;2023-06-22T14:51:37;30.70;99.90
19972;DHT22;10147;16.402;102.848;2023-06-22T14:54:07;30.70;99.90
19972;DHT22;10147;16.402;102.848;2023-06-22T14:56:41;30.90;99.90
19972;DHT22;10147;16.402;102.848;2023-06-22T14:59:14;30.90;99.90
19972;DHT22;10147;16.402;102.848;2023-06-22T15:01:46;31.00;99.90
19972;DHT22;10147;16.402;102.848;2023-06-22T15:04:16;31.20;99.90
19972;DHT22;10147;16.402;102.848;2023-06-22T15:06:46;31.20;99.90
19972;DHT22;10147;16.402;102.848;2023-06-22T15:09:17;31.30;99.90
19972;DHT22;10147;16.402;102.848;2023-06-22T15:11:49;31.20;99.90
19972;DHT22;10147;16.402;102.848;2023-06-22T15:14:19;31.20;99.90
19972;DHT22;10147;16.402;102.848;2023-06-22T15:16:52;31.00;99.90
19972;DHT22;10147;16.402;102.848;2023-06-22T15:19:23;30.80;99.90
19972;DHT22;10147;16.402;102.848;2023-06-22T15:21:53;30.70;99.90
19972;DHT22;10147;16.402;102.848;2023-06-22T15:24:24;30.60;99.90
19972;DHT22;10147;16.402;102.848;2023-06-22T15:26:53;30.70;99.90
19972;DHT22;10147;16.402;102.848;2023-06-22T15:29:26;30.90;99.90